Time;durP1;ratioP1;P1;durP2;ratioP2;P2;SDS_P1;SDS_P2;PMS_P1;PMS_P2;Temp;Humidity;BMP_temperature;BMP_pressure;BME280_temperature;BME280_humidity;BME280_pressure;Samples;Min_cycle;Max_cycle;Signal;HPM_P1;HPM_P2
2022/03/11 00:00:27;;;;;;;10.63;7.37;;;3.50;83.90;;;;;;4960747;28;20697;-79
2022/03/11 00:03:04;;;;;;;11.73;7.90;;;3.50;84.30;;;;;;4984999;28;20281;-77
2022/03/11 00:05:29;;;;;;;10.40;7.43;;;3.40;84.10;;;;;;4961139;28;20203;-79
2022/03/11 00:07:55;;;;;;;11.60;7.43;;;3.40;83.00;;;;;;4975602;28;20191;-78
2022/03/11 00:10:22;;;;;;;9.43;7.23;;;3.40;82.90;;;;;;4976334;28;20180;-79
2022/03/11 00:12:48;;;;;;;10.37;7.13;;;3.30;82.60;;;;;;4979533;28;20638;-79
2022/03/11 00:15:15;;;;;;;10.60;6.90;;;3.30;82.60;;;;;;4976953;28;20635;-78
2022/03/11 00:17:41;;;;;;;10.47;7.17;;;3.20;82.30;;;;;;4976216;28;20186;-78
2022/03/11 00:20:09;;;;;;;10.60;7.33;;;3.20;82.40;;;;;;4977090;28;20745;-78
2022/03/11 00:22:35;;;;;;;10.50;7.23;;;3.10;82.30;;;;;;4977140;28;20181;-78
2022/03/11 00:25:00;;;;;;;12.23;7.53;;;3.10;82.20;;;;;;4980238;28;20203;-78
2022/03/11 00:27:26;;;;;;;9.70;6.90;;;3.10;82.30;;;;;;4973530;28;20207;-78
2022/03/11 00:29:52;;;;;;;12.73;7.63;;;3.00;82.30;;;;;;4966483;28;20175;-79
2022/03/11 00:32:18;;;;;;;11.20;6.97;;;3.00;82.30;;;;;;4975757;28;20235;-78
2022/03/11 00:34:44;;;;;;;13.27;7.03;;;3.00;82.00;;;;;;4969407;28;20191;-78
2022/03/11 00:37:11;;;;;;;11.03;7.37;;;3.00;82.10;;;;;;4976894;28;20185;-78
2022/03/11 00:39:37;;;;;;;10.97;7.00;;;3.00;82.00;;;;;;4979973;28;20198;-79
2022/03/11 00:42:03;;;;;;;10.00;7.30;;;2.90;82.20;;;;;;4977620;28;21214;-79
2022/03/11 00:44:30;;;;;;;12.83;7.27;;;2.90;82.00;;;;;;4976853;28;20191;-78
2022/03/11 00:46:56;;;;;;;9.70;6.50;;;2.80;82.20;;;;;;4975946;28;20175;-77
2022/03/11 00:49:21;;;;;;;9.57;6.80;;;2.80;82.00;;;;;;4991331;28;20215;-77
2022/03/11 00:51:47;;;;;;;11.57;6.80;;;2.80;82.40;;;;;;4975680;28;20191;-78
2022/03/11 00:54:13;;;;;;;10.60;6.90;;;2.70;82.40;;;;;;4969470;28;20199;-77
2022/03/11 00:56:38;;;;;;;14.60;7.67;;;2.80;82.30;;;;;;4958807;28;20186;-77
2022/03/11 00:59:06;;;;;;;10.40;6.67;;;2.70;82.50;;;;;;4956223;28;20204;-78
2022/03/11 01:01:31;;;;;;;10.07;7.07;;;2.70;83.10;;;;;;4973639;28;20248;-78
2022/03/11 01:04:00;;;;;;;10.63;6.70;;;2.70;82.90;;;;;;4957455;28;20239;-78
2022/03/11 01:06:26;;;;;;;10.00;6.67;;;2.60;82.80;;;;;;4974958;28;20206;-78
2022/03/11 01:08:51;;;;;;;11.90;6.83;;;2.60;83.20;;;;;;4976767;28;20200;-78
2022/03/11 01:11:17;;;;;;;11.87;6.90;;;2.50;82.90;;;;;;4977261;28;20176;-80
2022/03/11 01:13:43;;;;;;;11.70;7.10;;;2.60;82.80;;;;;;4974224;28;20637;-78
2022/03/11 01:16:12;;;;;;;9.27;6.30;;;2.50;83.40;;;;;;4987038;28;20556;-78
2022/03/11 01:18:37;;;;;;;10.73;6.93;;;2.60;82.80;;;;;;4975482;28;20198;-78
2022/03/11 01:21:04;;;;;;;12.63;7.13;;;2.60;82.70;;;;;;4978500;28;20218;-78
2022/03/11 01:23:29;;;;;;;9.50;6.50;;;2.50;82.60;;;;;;4979916;28;20199;-77
2022/03/11 01:25:55;;;;;;;9.27;7.03;;;2.50;84.30;;;;;;4977157;28;20235;-79
2022/03/11 01:28:21;;;;;;;9.93;6.40;;;2.60;82.20;;;;;;4981304;28;20664;-79
2022/03/11 01:30:46;;;;;;;10.13;6.67;;;2.50;82.80;;;;;;4985146;28;20171;-79
2022/03/11 01:33:12;;;;;;;12.13;7.00;;;2.40;82.70;;;;;;4987522;28;20274;-78
2022/03/11 01:35:41;;;;;;;9.20;6.37;;;2.30;82.80;;;;;;4988282;28;20176;-79
2022/03/11 01:38:07;;;;;;;9.77;6.53;;;2.30;83.00;;;;;;4985367;28;20231;-79
2022/03/11 01:40:32;;;;;;;9.03;5.93;;;2.30;82.80;;;;;;4983845;28;20182;-78
2022/03/11 01:42:59;;;;;;;10.70;6.67;;;2.30;82.50;;;;;;4987653;28;20207;-78
2022/03/11 01:45:25;;;;;;;8.93;6.47;;;2.30;82.80;;;;;;4986162;28;20207;-79
2022/03/11 01:47:50;;;;;;;10.87;7.03;;;2.20;82.90;;;;;;4987600;28;20701;-78
2022/03/11 01:50:16;;;;;;;9.87;6.70;;;2.10;83.00;;;;;;4987834;28;20230;-79
2022/03/11 01:52:42;;;;;;;8.53;6.50;;;2.20;82.90;;;;;;4982905;28;20187;-79
2022/03/11 01:55:08;;;;;;;13.80;6.73;;;2.10;83.30;;;;;;4981126;28;20195;-78
2022/03/11 01:57:35;;;;;;;12.27;6.63;;;2.10;83.10;;;;;;4977474;28;20600;-77
2022/03/11 02:00:05;;;;;;;12.17;6.80;;;2.10;83.50;;;;;;4981641;28;20188;-79
2022/03/11 02:02:38;;;;;;;9.57;6.60;;;2.10;83.80;;;;;;4984446;28;20199;-78
2022/03/11 02:05:07;;;;;;;10.97;6.83;;;2.10;83.50;;;;;;4992722;28;20249;-79
2022/03/11 02:07:33;;;;;;;11.23;6.93;;;2.10;84.30;;;;;;4978073;28;20588;-77
2022/03/11 02:09:58;;;;;;;9.27;6.43;;;2.10;83.30;;;;;;4977466;28;20176;-79
2022/03/11 02:12:32;;;;;;;9.80;6.20;;;2.00;82.90;;;;;;4959779;28;20679;-79
2022/03/11 02:15:01;;;;;;;9.67;6.47;;;1.90;83.40;;;;;;4991882;28;20184;-79
2022/03/11 02:17:26;;;;;;;8.90;6.33;;;1.90;83.50;;;;;;4993928;28;20172;-79
2022/03/11 02:19:52;;;;;;;11.40;6.87;;;1.90;84.40;;;;;;4967532;28;20338;-78
2022/03/11 02:22:23;;;;;;;11.00;6.53;;;1.80;84.00;;;;;;4976482;28;20493;-78
2022/03/11 02:24:49;;;;;;;9.00;6.27;;;1.80;84.10;;;;;;5008186;28;20238;-79
2022/03/11 02:27:23;;;;;;;10.40;6.73;;;1.80;84.20;;;;;;4960419;28;20243;-78
2022/03/11 02:29:48;;;;;;;8.33;6.40;;;1.80;84.00;;;;;;4976546;28;20200;-78
2022/03/11 02:32:22;;;;;;;11.03;6.60;;;1.80;83.70;;;;;;4953637;28;20199;-78
2022/03/11 02:34:48;;;;;;;9.67;6.37;;;1.80;83.70;;;;;;4960009;28;20667;-78
2022/03/11 02:37:14;;;;;;;12.80;6.20;;;1.80;83.10;;;;;;4976052;28;20184;-78
2022/03/11 02:39:39;;;;;;;10.17;6.27;;;1.80;82.80;;;;;;4969283;28;20685;-77
2022/03/11 02:42:20;;;;;;;9.37;6.47;;;1.70;83.20;;;;;;4958167;28;20198;-78
2022/03/11 02:44:46;;;;;;;10.30;6.40;;;1.70;83.20;;;;;;4974730;28;20343;-78
2022/03/11 02:47:12;;;;;;;11.43;6.10;;;1.70;82.90;;;;;;4975833;28;20274;-78
2022/03/11 02:49:38;;;;;;;13.63;6.50;;;1.70;82.70;;;;;;4977308;28;20297;-78
2022/03/11 02:52:04;;;;;;;10.37;6.63;;;1.70;82.60;;;;;;4977681;28;20183;-78
2022/03/11 02:54:29;;;;;;;10.30;6.47;;;1.60;82.70;;;;;;4974635;28;20182;-78
2022/03/11 02:56:55;;;;;;;9.10;6.20;;;1.60;82.60;;;;;;4978487;28;20187;-78
2022/03/11 02:59:21;;;;;;;9.70;6.27;;;1.60;82.50;;;;;;4973247;28;20203;-78
2022/03/11 03:01:46;;;;;;;12.27;6.10;;;1.70;82.60;;;;;;4974907;28;20270;-78
2022/03/11 03:04:13;;;;;;;9.23;6.23;;;1.70;82.80;;;;;;4957986;28;20242;-78
2022/03/11 03:06:47;;;;;;;11.43;6.30;;;1.60;83.10;;;;;;4965971;28;20179;-78
2022/03/11 03:09:12;;;;;;;10.57;6.87;;;1.60;82.70;;;;;;4958469;28;20206;-78
2022/03/11 03:11:38;;;;;;;14.13;6.77;;;1.50;82.60;;;;;;4958999;28;20316;-78
2022/03/11 03:14:04;;;;;;;11.93;6.53;;;1.50;82.60;;;;;;4967165;28;20184;-78
2022/03/11 03:16:30;;;;;;;11.43;7.23;;;1.40;82.80;;;;;;4961508;28;20181;-78
2022/03/11 03:18:55;;;;;;;11.70;6.77;;;1.40;83.00;;;;;;4955363;28;20204;-78
2022/03/11 03:21:22;;;;;;;10.20;6.87;;;1.30;83.30;;;;;;4973759;28;20186;-78
2022/03/11 03:23:48;;;;;;;9.10;6.37;;;1.30;83.60;;;;;;4973835;28;20571;-78
2022/03/11 03:26:13;;;;;;;10.80;6.63;;;1.30;83.40;;;;;;4967479;28;20175;-78
2022/03/11 03:28:39;;;;;;;10.73;6.30;;;1.30;83.70;;;;;;4963416;28;20206;-78
2022/03/11 03:31:05;;;;;;;11.93;6.53;;;1.30;83.80;;;;;;4963415;28;20171;-78
2022/03/11 03:33:33;;;;;;;10.83;6.70;;;1.30;84.00;;;;;;4975973;28;20349;-78
2022/03/11 03:35:59;;;;;;;10.47;6.80;;;1.20;84.20;;;;;;4963264;28;20183;-78
2022/03/11 03:38:25;;;;;;;9.47;6.67;;;1.30;84.20;;;;;;4965782;28;20286;-78
2022/03/11 03:40:50;;;;;;;14.37;6.90;;;1.20;84.50;;;;;;4979329;28;20172;-78
2022/03/11 03:43:16;;;;;;;11.40;7.20;;;1.20;84.40;;;;;;4994970;28;20217;-78
2022/03/11 03:45:52;;;;;;;10.77;6.40;;;1.20;84.80;;;;;;4980520;28;20194;-78
2022/03/11 03:48:19;;;;;;;10.97;6.63;;;1.00;85.00;;;;;;4981172;28;20214;-79
2022/03/11 03:50:45;;;;;;;12.67;7.13;;;1.00;85.20;;;;;;4981728;28;20179;-78
2022/03/11 03:53:12;;;;;;;11.37;7.07;;;1.00;85.60;;;;;;4978448;28;20195;-79
2022/03/11 03:55:37;;;;;;;12.93;7.27;;;0.90;85.60;;;;;;4961818;28;20182;-78
2022/03/11 03:58:03;;;;;;;12.90;7.47;;;1.00;85.80;;;;;;4967159;28;20207;-78
2022/03/11 04:00:29;;;;;;;9.37;6.37;;;0.90;86.20;;;;;;4982294;28;20270;-78
2022/03/11 04:02:54;;;;;;;10.00;6.67;;;0.90;85.50;;;;;;4966382;28;20198;-78
2022/03/11 04:05:20;;;;;;;12.00;7.80;;;0.90;85.60;;;;;;4966837;28;20207;-79
2022/03/11 04:07:47;;;;;;;12.00;7.10;;;0.90;85.60;;;;;;4973453;28;20198;-79
2022/03/11 04:10:14;;;;;;;11.47;7.10;;;0.80;86.40;;;;;;4979560;28;20178;-79
2022/03/11 04:12:40;;;;;;;12.10;7.57;;;0.80;85.60;;;;;;4980568;28;20183;-80
2022/03/11 04:15:07;;;;;;;13.17;7.47;;;0.70;86.10;;;;;;4978524;28;20175;-78
2022/03/11 04:17:32;;;;;;;12.53;8.17;;;0.70;86.80;;;;;;4977704;28;20186;-78
2022/03/11 04:19:59;;;;;;;15.83;7.50;;;0.70;86.70;;;;;;4974888;28;20178;-78
2022/03/11 04:22:25;;;;;;;11.83;7.33;;;0.60;86.80;;;;;;4970203;28;20247;-78
2022/03/11 04:24:51;;;;;;;13.23;7.70;;;0.60;87.30;;;;;;4955490;28;20239;-78
2022/03/11 04:27:17;;;;;;;11.17;7.70;;;0.50;87.30;;;;;;5008471;28;20177;-77
2022/03/11 04:29:43;;;;;;;11.37;7.27;;;0.50;87.40;;;;;;4980674;28;20209;-79
2022/03/11 04:32:13;;;;;;;12.13;7.23;;;0.50;87.50;;;;;;4967731;28;20184;-79
2022/03/11 04:34:42;;;;;;;11.50;7.23;;;0.40;86.90;;;;;;4975503;28;20179;-78
2022/03/11 04:37:08;;;;;;;12.23;7.47;;;0.40;87.40;;;;;;4978060;28;20177;-78
2022/03/11 04:39:33;;;;;;;12.43;7.07;;;0.40;87.50;;;;;;4977479;28;20207;-78
2022/03/11 04:41:59;;;;;;;10.23;7.23;;;0.40;87.90;;;;;;4977582;28;20164;-79
2022/03/11 04:44:25;;;;;;;13.87;7.50;;;0.40;87.90;;;;;;4976606;28;20262;-78
2022/03/11 04:46:50;;;;;;;13.03;6.83;;;0.40;87.50;;;;;;4980612;28;20170;-79
2022/03/11 04:49:20;;;;;;;13.63;7.38;;;0.30;87.60;;;;;;4933149;28;1133088;-77
2022/03/11 04:51:46;;;;;;;13.43;7.20;;;0.30;86.70;;;;;;4975674;28;20165;-78
2022/03/11 04:54:12;;;;;;;12.00;7.13;;;0.30;86.90;;;;;;4992858;28;20287;-77
2022/03/11 04:56:37;;;;;;;11.10;7.67;;;0.30;87.30;;;;;;4996024;28;20183;-79
2022/03/11 04:59:03;;;;;;;12.93;7.23;;;0.30;86.80;;;;;;4978066;28;20208;-78
2022/03/11 05:01:30;;;;;;;14.80;8.13;;;0.30;86.70;;;;;;4977250;28;20251;-76
2022/03/11 05:03:56;;;;;;;10.63;7.20;;;0.20;87.20;;;;;;5007464;28;20226;-77
2022/03/11 05:06:21;;;;;;;11.87;7.87;;;0.30;87.50;;;;;;4991203;28;20174;-77
2022/03/11 05:08:49;;;;;;;13.37;7.43;;;0.20;87.30;;;;;;4992464;28;20225;-77
2022/03/11 05:11:15;;;;;;;13.00;6.60;;;0.20;86.30;;;;;;5002630;28;20234;-77
2022/03/11 05:13:41;;;;;;;15.70;7.43;;;0.20;86.50;;;;;;4994007;28;20234;-77
2022/03/11 05:16:07;;;;;;;13.80;7.87;;;0.20;86.20;;;;;;5003086;28;20178;-77
2022/03/11 05:18:35;;;;;;;15.23;8.17;;;0.20;87.10;;;;;;5002461;28;20233;-76
2022/03/11 05:21:03;;;;;;;12.03;8.10;;;0.10;86.40;;;;;;5001885;28;20177;-76
2022/03/11 05:23:29;;;;;;;19.03;9.50;;;0.10;87.70;;;;;;4995320;28;20182;-75
2022/03/11 05:25:54;;;;;;;15.07;9.57;;;0.20;88.30;;;;;;4980207;28;20210;-76
2022/03/11 05:28:31;;;;;;;13.87;8.17;;;0.10;88.00;;;;;;4974065;28;20214;-75
2022/03/11 05:30:57;;;;;;;15.27;7.93;;;0.10;87.40;;;;;;4961085;28;20281;-76
2022/03/11 05:33:23;;;;;;;13.20;7.63;;;0.10;86.90;;;;;;4960684;28;20175;-76
2022/03/11 05:35:54;;;;;;;14.50;7.20;;;0.10;87.20;;;;;;4961119;28;20185;-77
2022/03/11 05:38:20;;;;;;;13.50;8.20;;;0.10;86.30;;;;;;4960126;28;20197;-77
2022/03/11 05:40:45;;;;;;;12.23;7.77;;;0.10;87.40;;;;;;4959797;28;20185;-76
2022/03/11 05:43:22;;;;;;;15.37;7.23;;;0.00;86.50;;;;;;4958875;28;20575;-76
2022/03/11 05:45:48;;;;;;;19.00;7.93;;;0.00;86.50;;;;;;4958869;28;20250;-76
2022/03/11 05:48:13;;;;;;;17.10;7.67;;;0.00;86.50;;;;;;4958952;28;20583;-76
2022/03/11 05:50:45;;;;;;;15.73;7.77;;;0.00;86.50;;;;;;4960472;28;20170;-77
2022/03/11 05:53:13;;;;;;;14.33;7.83;;;0.00;86.70;;;;;;4967173;28;20195;-77
2022/03/11 05:55:44;;;;;;;14.23;8.20;;;0.00;87.00;;;;;;4965833;28;20213;-78
2022/03/11 05:58:24;;;;;;;12.23;8.13;;;0.10;86.90;;;;;;4942999;28;20662;-78
2022/03/11 06:00:50;;;;;;;12.67;7.47;;;0.00;86.70;;;;;;4942993;28;20621;-77
2022/03/11 06:03:16;;;;;;;12.13;7.80;;;0.00;86.70;;;;;;4942709;28;20176;-77
2022/03/11 06:05:42;;;;;;;16.27;7.70;;;0.00;86.80;;;;;;4942377;28;20202;-77
2022/03/11 06:08:08;;;;;;;15.97;8.10;;;-0.10;86.60;;;;;;4941542;28;20670;-77
2022/03/11 06:10:34;;;;;;;11.67;7.83;;;-0.10;86.60;;;;;;4943006;28;20334;-77
2022/03/11 06:12:59;;;;;;;14.87;8.00;;;-0.10;86.80;;;;;;4944006;28;20528;-77
2022/03/11 06:15:25;;;;;;;14.07;7.87;;;-0.10;86.60;;;;;;4942675;28;20210;-78
2022/03/11 06:17:51;;;;;;;13.13;8.03;;;-0.10;86.60;;;;;;4942519;28;20641;-78
2022/03/11 06:20:17;;;;;;;13.43;7.47;;;-0.10;86.40;;;;;;4958273;28;20182;-78
2022/03/11 06:22:53;;;;;;;12.03;7.60;;;-0.10;86.30;;;;;;4942741;28;20181;-77
2022/03/11 06:25:20;;;;;;;12.23;7.67;;;-0.10;86.30;;;;;;4970374;28;20190;-80
2022/03/11 06:27:46;;;;;;;14.73;7.67;;;-0.10;86.70;;;;;;4960447;28;20238;-78
2022/03/11 06:30:12;;;;;;;14.23;8.37;;;-0.10;86.30;;;;;;4958997;28;20182;-80
2022/03/11 06:32:43;;;;;;;13.10;7.67;;;-0.10;85.40;;;;;;4958724;28;20205;-78
2022/03/11 06:35:11;;;;;;;15.37;8.00;;;-0.10;85.50;;;;;;4958160;28;20210;-79
2022/03/11 06:37:37;;;;;;;14.57;7.57;;;-0.10;85.50;;;;;;4957342;28;20185;-77
2022/03/11 06:40:03;;;;;;;15.10;7.47;;;-0.10;85.40;;;;;;4957467;28;20191;-78
2022/03/11 06:42:39;;;;;;;12.43;8.23;;;-0.10;85.30;;;;;;4957539;28;20182;-78
2022/03/11 06:45:07;;;;;;;19.23;8.53;;;0.00;84.80;;;;;;4957319;28;20199;-78
2022/03/11 06:47:34;;;;;;;16.80;8.23;;;0.00;84.50;;;;;;4956824;28;20216;-78
2022/03/11 06:49:59;;;;;;;17.27;8.20;;;0.00;84.90;;;;;;4957159;28;20184;-78
2022/03/11 06:52:25;;;;;;;16.80;8.87;;;0.00;84.70;;;;;;4958429;28;20194;-79
2022/03/11 06:54:52;;;;;;;19.73;8.20;;;0.00;83.80;;;;;;4974521;28;20214;-78
2022/03/11 06:57:21;;;;;;;16.43;8.00;;;0.00;83.80;;;;;;4972543;28;20193;-78
2022/03/11 06:59:49;;;;;;;13.73;7.37;;;0.00;84.20;;;;;;4956519;28;20312;-78
2022/03/11 07:02:16;;;;;;;19.87;7.87;;;0.00;83.80;;;;;;4958304;28;20175;-79
2022/03/11 07:04:42;;;;;;;12.40;7.10;;;0.10;83.20;;;;;;4957626;28;20179;-78
2022/03/11 07:07:07;;;;;;;14.63;7.70;;;0.10;82.80;;;;;;4957287;28;20190;-78
2022/03/11 07:09:34;;;;;;;17.87;7.93;;;0.10;82.70;;;;;;4955244;28;20261;-79
2022/03/11 07:12:03;;;;;;;16.03;7.40;;;0.10;83.50;;;;;;4956484;28;20220;-78
2022/03/11 07:14:30;;;;;;;18.27;7.07;;;0.10;82.80;;;;;;4956610;28;20210;-78
2022/03/11 07:16:57;;;;;;;13.57;7.13;;;0.10;81.30;;;;;;4957228;28;20193;-79
2022/03/11 07:19:23;;;;;;;17.30;8.10;;;0.10;81.60;;;;;;4955981;28;20307;-78
2022/03/11 07:21:49;;;;;;;17.20;8.30;;;0.10;82.00;;;;;;4957072;28;20183;-76
2022/03/11 07:24:15;;;;;;;19.87;7.53;;;0.20;81.90;;;;;;4968134;28;20557;-77
2022/03/11 07:26:41;;;;;;;18.47;8.20;;;0.20;81.80;;;;;;4975953;28;20192;-78
2022/03/11 07:29:32;;;;;;;17.83;7.80;;;0.30;81.50;;;;;;4975877;28;20216;-78
2022/03/11 07:31:58;;;;;;;13.97;7.17;;;0.30;80.60;;;;;;4977515;28;20590;-79
2022/03/11 07:34:26;;;;;;;18.63;8.07;;;0.30;80.70;;;;;;4974471;28;20206;-81
2022/03/11 07:36:52;;;;;;;18.60;7.90;;;0.30;80.70;;;;;;4980242;28;20592;-77
2022/03/11 07:39:28;;;;;;;13.00;7.40;;;0.40;80.40;;;;;;4986103;28;20201;-77
2022/03/11 07:42:26;;;;;;;22.57;8.30;;;0.40;79.60;;;;;;4992717;28;20174;-77
2022/03/11 07:45:02;;;;;;;20.63;7.83;;;0.40;79.70;;;;;;4995065;28;20177;-77
2022/03/11 07:47:33;;;;;;;26.33;7.60;;;0.40;78.70;;;;;;4994858;28;20217;-77
2022/03/11 07:49:58;;;;;;;22.87;7.97;;;0.50;79.30;;;;;;4995498;28;20208;-77
2022/03/11 07:52:25;;;;;;;19.03;7.90;;;0.50;78.80;;;;;;4994889;28;20264;-78
2022/03/11 07:54:50;;;;;;;22.33;8.33;;;0.60;78.20;;;;;;4986926;28;20221;-78
2022/03/11 07:57:20;;;;;;;19.53;8.03;;;0.60;77.70;;;;;;4985920;28;20278;-78
2022/03/11 07:59:56;;;;;;;15.40;7.47;;;0.60;77.70;;;;;;4995156;28;20206;-78
2022/03/11 08:02:31;;;;;;;19.43;7.10;;;0.60;76.40;;;;;;4988237;28;20224;-78
2022/03/11 08:04:57;;;;;;;17.60;7.03;;;0.70;76.10;;;;;;4994657;28;20188;-78
2022/03/11 08:07:26;;;;;;;16.97;7.40;;;0.80;76.10;;;;;;4995414;28;20186;-78
2022/03/11 08:09:51;;;;;;;25.90;7.33;;;0.90;75.00;;;;;;4994525;28;20213;-78
2022/03/11 08:12:17;;;;;;;15.60;7.23;;;0.90;74.40;;;;;;4995430;28;20190;-78
2022/03/11 08:14:46;;;;;;;14.30;7.27;;;1.00;74.20;;;;;;4994624;28;20283;-79
2022/03/11 08:17:12;;;;;;;20.40;7.70;;;1.00;73.50;;;;;;4993935;28;20253;-78
2022/03/11 08:19:37;;;;;;;15.07;7.13;;;1.10;72.60;;;;;;4976853;28;20258;-78
2022/03/11 08:22:03;;;;;;;12.10;6.77;;;1.10;71.80;;;;;;4981183;28;20226;-78
2022/03/11 08:24:29;;;;;;;17.67;7.20;;;1.20;71.80;;;;;;4984463;28;20191;-79
2022/03/11 08:26:55;;;;;;;17.83;7.17;;;1.20;70.20;;;;;;4994111;28;20187;-78
2022/03/11 08:29:32;;;;;;;22.27;7.33;;;1.30;70.70;;;;;;4994084;28;20210;-77
2022/03/11 08:32:03;;;;;;;20.30;7.53;;;1.30;70.20;;;;;;5002394;28;20167;-78
2022/03/11 08:34:29;;;;;;;18.13;7.67;;;1.40;70.20;;;;;;4994858;28;20202;-78
2022/03/11 08:37:09;;;;;;;20.83;7.30;;;1.50;69.10;;;;;;4999019;28;20214;-77
2022/03/11 08:39:35;;;;;;;14.20;6.63;;;1.50;68.20;;;;;;4998889;28;20198;-78
2022/03/11 08:42:00;;;;;;;19.10;7.23;;;1.60;67.40;;;;;;4998194;28;20183;-78
2022/03/11 08:44:26;;;;;;;21.50;6.90;;;1.60;66.90;;;;;;4998342;28;20178;-78
2022/03/11 08:46:52;;;;;;;13.20;7.00;;;1.60;67.20;;;;;;4998332;28;20178;-78
2022/03/11 08:49:17;;;;;;;23.40;7.77;;;1.60;67.30;;;;;;4998456;28;20217;-78
2022/03/11 08:51:43;;;;;;;21.50;7.53;;;1.80;67.20;;;;;;4998693;28;20196;-77
2022/03/11 08:54:10;;;;;;;14.93;7.00;;;1.80;66.60;;;;;;4988576;28;20179;-78
2022/03/11 08:56:35;;;;;;;17.23;7.13;;;1.90;65.40;;;;;;4983405;28;20170;-78
2022/03/11 08:59:01;;;;;;;26.53;7.70;;;2.00;64.70;;;;;;4997298;28;20294;-77
2022/03/11 09:01:32;;;;;;;12.00;7.00;;;2.00;64.00;;;;;;4997077;28;20549;-78
2022/03/11 09:03:57;;;;;;;16.27;6.80;;;2.00;62.70;;;;;;4996267;28;20570;-78
2022/03/11 09:06:33;;;;;;;20.00;7.23;;;2.00;62.50;;;;;;4998066;28;20178;-78
2022/03/11 09:08:59;;;;;;;22.10;7.20;;;2.10;63.20;;;;;;4997394;28;20202;-78
2022/03/11 09:11:24;;;;;;;14.53;7.27;;;2.20;63.80;;;;;;4997168;28;20241;-78
2022/03/11 09:13:50;;;;;;;18.40;7.60;;;2.30;64.00;;;;;;4997951;28;20257;-77
2022/03/11 09:16:16;;;;;;;20.77;7.87;;;2.40;62.10;;;;;;4997543;28;20182;-78
2022/03/11 09:18:46;;;;;;;26.57;8.27;;;2.40;61.10;;;;;;4997630;28;20222;-78
2022/03/11 09:21:22;;;;;;;21.03;7.20;;;2.50;60.80;;;;;;4975538;28;20251;-78
2022/03/11 09:23:48;;;;;;;28.30;8.00;;;2.50;61.00;;;;;;4973502;28;20179;-79
2022/03/11 09:26:17;;;;;;;21.60;7.47;;;2.60;60.60;;;;;;4998122;28;20197;-77
2022/03/11 09:28:42;;;;;;;21.37;7.50;;;2.60;60.30;;;;;;4998241;28;20519;-77
2022/03/11 09:31:13;;;;;;;14.57;6.90;;;2.70;59.50;;;;;;4997893;28;20175;-77
2022/03/11 09:33:40;;;;;;;18.90;7.20;;;2.70;59.60;;;;;;4997740;28;20171;-77
2022/03/11 09:36:07;;;;;;;20.20;7.57;;;2.80;58.50;;;;;;4997767;28;20201;-78
2022/03/11 09:38:33;;;;;;;21.63;7.93;;;2.90;58.30;;;;;;4997152;28;20194;-78
2022/03/11 09:41:02;;;;;;;15.77;6.97;;;3.00;57.90;;;;;;4997490;28;20186;-78
2022/03/11 09:43:27;;;;;;;18.33;7.27;;;3.10;57.90;;;;;;4998404;28;20270;-78
2022/03/11 09:45:53;;;;;;;18.07;7.00;;;3.20;58.10;;;;;;4994583;28;20220;-78
2022/03/11 09:48:27;;;;;;;15.67;7.27;;;3.30;58.10;;;;;;4997338;28;20232;-78
2022/03/11 09:50:53;;;;;;;19.63;7.43;;;3.40;57.00;;;;;;4988379;28;20218;-78
2022/03/11 09:53:26;;;;;;;14.53;7.00;;;3.50;57.60;;;;;;4997946;28;20175;-78
2022/03/11 09:55:52;;;;;;;18.07;7.50;;;3.70;57.10;;;;;;5000898;28;20202;-78
2022/03/11 09:58:18;;;;;;;13.93;6.27;;;3.70;55.80;;;;;;4996717;28;20202;-79
2022/03/11 10:00:46;;;;;;;13.70;6.30;;;3.70;55.30;;;;;;4998026;28;20189;-78
2022/03/11 10:03:12;;;;;;;10.30;6.33;;;3.70;53.90;;;;;;4996921;28;20214;-76
2022/03/11 10:06:07;;;;;;;21.60;6.97;;;3.70;54.40;;;;;;4997214;28;20182;-78
2022/03/11 10:08:35;;;;;;;17.37;6.57;;;3.90;54.40;;;;;;4969409;28;20221;-78
2022/03/11 10:11:46;;;;;;;29.57;7.57;;;4.00;53.70;;;;;;4996953;28;20205;-78
2022/03/11 10:14:13;;;;;;;19.80;7.20;;;4.20;51.80;;;;;;4997179;28;20189;-79
2022/03/11 10:16:54;;;;;;;15.93;6.30;;;4.20;50.90;;;;;;4997149;28;20179;-78
2022/03/11 10:19:21;;;;;;;11.37;6.70;;;4.30;51.80;;;;;;4995245;28;20273;-78
2022/03/11 10:22:12;;;;;;;16.00;6.30;;;4.60;51.60;;;;;;4994139;28;20171;-78
2022/03/11 10:24:37;;;;;;;15.50;6.90;;;4.90;52.30;;;;;;4994050;28;20178;-78
2022/03/11 10:27:07;;;;;;;20.23;6.63;;;5.40;50.80;;;;;;4985047;28;20190;-78
2022/03/11 10:29:47;;;;;;;17.50;7.30;;;5.60;50.00;;;;;;4996499;28;20246;-79
2022/03/11 10:32:13;;;;;;;13.63;7.20;;;6.00;49.20;;;;;;4997098;28;20182;-78
2022/03/11 10:34:39;;;;;;;15.37;6.60;;;6.20;48.30;;;;;;4996604;28;20187;-78
2022/03/11 10:37:16;;;;;;;13.90;6.83;;;6.40;46.50;;;;;;4996893;28;20182;-78
2022/03/11 10:39:47;;;;;;;11.27;6.63;;;6.50;46.40;;;;;;4996382;28;20276;-79
2022/03/11 10:42:20;;;;;;;21.43;6.77;;;6.60;45.60;;;;;;4991532;28;20189;-78
2022/03/11 10:45:08;;;;;;;12.43;6.17;;;6.70;45.10;;;;;;4996669;28;20641;-79
2022/03/11 10:48:06;;;;;;;14.07;6.70;;;6.80;43.30;;;;;;4980370;28;20195;-78
2022/03/11 10:50:35;;;;;;;10.37;6.33;;;7.00;42.70;;;;;;4991517;28;20183;-78
2022/03/11 10:53:06;;;;;;;11.83;6.40;;;7.30;43.10;;;;;;4994514;28;20280;-78
2022/03/11 10:55:33;;;;;;;14.43;7.07;;;7.60;41.80;;;;;;4986838;28;20205;-78
2022/03/11 10:58:01;;;;;;;12.87;6.70;;;7.60;43.10;;;;;;4982852;28;20194;-81
2022/03/11 11:00:33;;;;;;;14.97;6.33;;;7.80;43.00;;;;;;5006457;28;20186;-79
2022/03/11 11:03:19;;;;;;;21.33;7.50;;;7.90;41.40;;;;;;4981597;28;20181;-78
2022/03/11 11:05:45;;;;;;;16.00;6.20;;;8.00;41.10;;;;;;4974267;28;20182;-77
2022/03/11 11:08:10;;;;;;;12.73;6.00;;;8.00;41.10;;;;;;4995914;28;20202;-78
2022/03/11 11:10:39;;;;;;;12.00;6.60;;;8.10;40.30;;;;;;4995533;28;20208;-78
2022/03/11 11:13:06;;;;;;;18.47;6.90;;;8.20;41.30;;;;;;4996227;28;20178;-78
2022/03/11 11:15:32;;;;;;;16.17;6.27;;;8.40;40.90;;;;;;4995816;28;20281;-77
2022/03/11 11:18:12;;;;;;;12.87;6.10;;;8.20;40.60;;;;;;4994596;28;20194;-79
2022/03/11 11:20:51;;;;;;;14.40;6.37;;;8.10;40.20;;;;;;4996317;28;20233;-78
2022/03/11 11:23:18;;;;;;;14.70;6.67;;;8.20;40.10;;;;;;4989900;28;20179;-78
2022/03/11 11:25:51;;;;;;;10.43;6.10;;;8.30;39.70;;;;;;4990053;28;20171;-78
2022/03/11 11:28:21;;;;;;;14.30;6.07;;;8.40;38.80;;;;;;4993425;28;20214;-78
2022/03/11 11:31:01;;;;;;;9.50;5.53;;;8.40;38.40;;;;;;4995963;28;20175;-78
2022/03/11 11:33:44;;;;;;;12.93;6.50;;;8.60;38.10;;;;;;4995932;28;20170;-79
2022/03/11 11:36:10;;;;;;;9.87;5.93;;;8.50;37.40;;;;;;5009861;28;20199;-80
2022/03/11 11:38:42;;;;;;;18.17;6.70;;;8.60;37.30;;;;;;4984190;28;20301;-78
2022/03/11 11:41:29;;;;;;;11.40;6.60;;;8.60;37.30;;;;;;4994945;28;20179;-77
2022/03/11 11:44:06;;;;;;;8.97;5.63;;;8.70;37.20;;;;;;4967677;28;20258;-78
2022/03/11 11:46:40;;;;;;;11.90;5.87;;;8.90;36.90;;;;;;4995006;28;20174;-78
2022/03/11 11:49:38;;;;;;;13.53;6.53;;;9.10;36.50;;;;;;4994609;28;20202;-78
2022/03/11 11:52:08;;;;;;;9.37;6.13;;;9.40;36.70;;;;;;4956722;28;20180;-78
2022/03/11 11:54:38;;;;;;;13.17;6.37;;;9.60;36.30;;;;;;4995208;28;20196;-78
2022/03/11 11:57:05;;;;;;;13.80;6.67;;;9.70;35.70;;;;;;4987127;28;20173;-78
2022/03/11 11:59:35;;;;;;;18.50;6.90;;;9.70;36.00;;;;;;4994819;28;20196;-78
2022/03/11 12:02:44;;;;;;;12.77;5.87;;;9.90;35.90;;;;;;4995413;28;20206;-77
2022/03/11 12:05:42;;;;;;;13.30;6.27;;;10.10;35.10;;;;;;4993301;28;20271;-78
2022/03/11 12:08:09;;;;;;;11.87;5.80;;;9.90;35.10;;;;;;4988687;28;20213;-78
2022/03/11 12:18:15;;;;;;;;;;;;;;;;;;;;;
2022/03/11 12:21:30;;;;;;;13.30;5.97;;;8.80;35.20;;;;;;5011238;28;20187;-78
2022/03/11 12:29:07;;;;;;;;;;;;;;;;;;;;;
2022/03/11 12:32:43;;;;;;;14.10;5.93;;;8.10;35.50;;;;;;4950832;28;20194;-78
2022/03/11 12:36:20;;;;;;;14.33;5.47;;;8.10;36.40;;;;;;4968210;28;20211;-77
2022/03/11 12:40:01;;;;;;;;;;;;;;;;;;;;;
2022/03/11 12:43:51;;;;;;;20.03;6.40;;;8.10;35.00;;;;;;4992425;28;20197;-78
2022/03/11 12:50:13;;;;;;;13.10;5.87;;;8.20;35.70;;;;;;4984362;28;20253;-78
2022/03/11 12:52:44;;;;;;;19.47;6.73;;;8.30;36.10;;;;;;4994346;28;20348;-78
2022/03/11 12:55:25;;;;;;;18.13;6.07;;;8.20;35.70;;;;;;4990214;28;20220;-78
2022/03/11 12:57:54;;;;;;;9.27;5.90;;;8.20;35.90;;;;;;4993794;28;20209;-78
2022/03/11 13:00:26;;;;;;;10.23;5.47;;;8.20;36.40;;;;;;4994502;28;20206;-78
2022/03/11 13:02:52;;;;;;;17.17;6.83;;;8.30;37.50;;;;;;4992864;28;20207;-79
2022/03/11 13:05:23;;;;;;;12.67;6.03;;;8.30;37.40;;;;;;4985959;28;20177;-78
2022/03/11 13:07:58;;;;;;;9.87;6.40;;;8.30;36.00;;;;;;4994107;28;20712;-78
2022/03/11 13:10:26;;;;;;;14.20;6.30;;;8.30;36.20;;;;;;4994511;28;20184;-78
2022/03/11 13:12:54;;;;;;;13.17;5.77;;;8.20;36.00;;;;;;4984627;28;20199;-78
2022/03/11 13:15:22;;;;;;;11.90;5.90;;;8.30;36.20;;;;;;4993912;28;20606;-78
2022/03/11 13:17:51;;;;;;;12.97;6.20;;;8.30;36.80;;;;;;4996188;28;20222;-78
2022/03/11 13:20:33;;;;;;;12.13;6.20;;;8.50;37.20;;;;;;4997631;28;20201;-78